sensor_id;sensor_type;location;lat;lon;timestamp;pressure;altitude;pressure_sealevel;temperature;humidity
15674;BME280;7937;48.090;16.212;2022-08-25T00:02:54;97861.19;;;18.93;91.63
15674;BME280;7937;48.090;16.212;2022-08-25T00:05:58;97858.53;;;18.93;91.79
15674;BME280;7937;48.090;16.212;2022-08-25T00:09:03;97857.69;;;18.92;91.83
15674;BME280;7937;48.090;16.212;2022-08-25T00:12:06;97850.50;;;18.93;92.06
15674;BME280;7937;48.090;16.212;2022-08-25T00:15:08;97853.19;;;18.93;91.97
15674;BME280;7937;48.090;16.212;2022-08-25T00:18:12;97853.00;;;18.94;92.17
15674;BME280;7937;48.090;16.212;2022-08-25T00:21:21;97847.50;;;18.96;92.28
15674;BME280;7937;48.090;16.212;2022-08-25T00:24:24;97849.81;;;18.99;92.10
15674;BME280;7937;48.090;16.212;2022-08-25T00:27:26;97849.81;;;18.99;92.34
15674;BME280;7937;48.090;16.212;2022-08-25T00:30:28;97848.47;;;19.03;92.16
15674;BME280;7937;48.090;16.212;2022-08-25T00:33:31;97855.13;;;19.07;92.36
15674;BME280;7937;48.090;16.212;2022-08-25T00:36:33;97847.31;;;19.05;91.92
15674;BME280;7937;48.090;16.212;2022-08-25T00:39:37;97846.63;;;19.03;92.14
15674;BME280;7937;48.090;16.212;2022-08-25T00:42:40;97849.97;;;19.05;92.25
15674;BME280;7937;48.090;16.212;2022-08-25T00:45:42;97852.81;;;19.04;92.52
15674;BME280;7937;48.090;16.212;2022-08-25T00:48:48;97851.66;;;19.06;92.42
15674;BME280;7937;48.090;16.212;2022-08-25T00:52:05;97850.81;;;19.06;92.36
15674;BME280;7937;48.090;16.212;2022-08-25T00:55:19;97845.63;;;19.04;92.37
15674;BME280;7937;48.090;16.212;2022-08-25T00:58:24;97841.44;;;19.02;92.71
15674;BME280;7937;48.090;16.212;2022-08-25T01:02:05;97840.63;;;19.01;92.57
15674;BME280;7937;48.090;16.212;2022-08-25T01:05:11;97842.44;;;19.01;92.53
15674;BME280;7937;48.090;16.212;2022-08-25T01:08:14;97837.94;;;19.01;92.68
15674;BME280;7937;48.090;16.212;2022-08-25T01:11:17;97840.44;;;19.03;92.71
15674;BME280;7937;48.090;16.212;2022-08-25T01:14:23;97829.56;;;19.04;92.66
15674;BME280;7937;48.090;16.212;2022-08-25T01:17:37;97830.59;;;19.03;92.85
15674;BME280;7937;48.090;16.212;2022-08-25T01:20:51;97827.91;;;19.03;92.76
15674;BME280;7937;48.090;16.212;2022-08-25T01:23:55;97831.25;;;19.05;92.75
15674;BME280;7937;48.090;16.212;2022-08-25T01:26:59;97830.03;;;19.08;92.62
15674;BME280;7937;48.090;16.212;2022-08-25T01:30:03;97827.56;;;19.06;92.72
15674;BME280;7937;48.090;16.212;2022-08-25T01:33:08;97827.91;;;19.03;92.74
15674;BME280;7937;48.090;16.212;2022-08-25T01:36:10;97822.88;;;19.00;93.09
15674;BME280;7937;48.090;16.212;2022-08-25T01:39:13;97824.06;;;18.98;93.35
15674;BME280;7937;48.090;16.212;2022-08-25T01:42:28;97824.06;;;18.98;93.38
15674;BME280;7937;48.090;16.212;2022-08-25T01:45:36;97821.59;;;18.96;93.48
15674;BME280;7937;48.090;16.212;2022-08-25T01:48:39;97812.06;;;18.94;93.60
15674;BME280;7937;48.090;16.212;2022-08-25T01:51:46;97810.22;;;18.94;93.49
15674;BME280;7937;48.090;16.212;2022-08-25T01:54:49;97816.25;;;18.96;93.62
15674;BME280;7937;48.090;16.212;2022-08-25T01:57:51;97818.53;;;18.99;93.54
15674;BME280;7937;48.090;16.212;2022-08-25T02:00:56;97816.53;;;19.01;93.34
15674;BME280;7937;48.090;16.212;2022-08-25T02:03:59;97824.72;;;19.00;93.35
15674;BME280;7937;48.090;16.212;2022-08-25T02:07:05;97818.38;;;19.01;93.31
15674;BME280;7937;48.090;16.212;2022-08-25T02:10:11;97817.53;;;19.00;93.27
15674;BME280;7937;48.090;16.212;2022-08-25T02:13:14;97815.03;;;18.99;93.28
15674;BME280;7937;48.090;16.212;2022-08-25T02:16:21;97815.41;;;18.96;93.55
15674;BME280;7937;48.090;16.212;2022-08-25T02:19:25;97822.91;;;18.92;93.69
15674;BME280;7937;48.090;16.212;2022-08-25T02:22:27;97819.56;;;18.90;93.69
15674;BME280;7937;48.090;16.212;2022-08-25T02:25:31;97819.41;;;18.92;93.75
15674;BME280;7937;48.090;16.212;2022-08-25T02:28:33;97814.91;;;18.92;93.76
15674;BME280;7937;48.090;16.212;2022-08-25T02:31:35;97817.41;;;18.94;93.73
15674;BME280;7937;48.090;16.212;2022-08-25T02:34:38;97813.91;;;18.93;93.72
15674;BME280;7937;48.090;16.212;2022-08-25T02:37:42;97814.72;;;18.94;93.66
15674;BME280;7937;48.090;16.212;2022-08-25T02:40:44;97814.22;;;18.90;93.78
15674;BME280;7937;48.090;16.212;2022-08-25T02:43:47;97815.22;;;18.89;93.78
15674;BME280;7937;48.090;16.212;2022-08-25T02:46:49;97806.22;;;18.90;93.79
15674;BME280;7937;48.090;16.212;2022-08-25T02:49:51;97805.38;;;18.90;93.78
15674;BME280;7937;48.090;16.212;2022-08-25T02:52:54;97807.03;;;18.91;93.97
15674;BME280;7937;48.090;16.212;2022-08-25T02:55:56;97809.22;;;18.95;93.79
15674;BME280;7937;48.090;16.212;2022-08-25T02:58:58;97806.16;;;18.98;93.80
15674;BME280;7937;48.090;16.212;2022-08-25T03:02:02;97806.00;;;19.00;93.60
15674;BME280;7937;48.090;16.212;2022-08-25T03:05:04;97800.47;;;19.01;93.56
15674;BME280;7937;48.090;16.212;2022-08-25T03:08:08;97809.34;;;19.02;93.66
15674;BME280;7937;48.090;16.212;2022-08-25T03:11:10;97798.47;;;19.03;93.46
15674;BME280;7937;48.090;16.212;2022-08-25T03:14:13;97796.63;;;19.04;93.60
15674;BME280;7937;48.090;16.212;2022-08-25T03:17:15;97803.66;;;19.05;93.41
15674;BME280;7937;48.090;16.212;2022-08-25T03:20:17;97799.97;;;19.06;93.59
15674;BME280;7937;48.090;16.212;2022-08-25T03:23:20;97801.81;;;19.05;93.49
15674;BME280;7937;48.090;16.212;2022-08-25T03:26:22;97806.50;;;19.03;93.46
15674;BME280;7937;48.090;16.212;2022-08-25T03:29:43;97800.19;;;18.96;93.77
15674;BME280;7937;48.090;16.212;2022-08-25T03:32:46;97797.19;;;18.91;94.27
15674;BME280;7937;48.090;16.212;2022-08-25T03:35:48;97793.38;;;18.86;94.54
15674;BME280;7937;48.090;16.212;2022-08-25T03:38:51;97793.69;;;18.83;95.15
15674;BME280;7937;48.090;16.212;2022-08-25T03:41:53;97790.69;;;18.77;95.46
15674;BME280;7937;48.090;16.212;2022-08-25T03:44:56;97799.91;;;18.75;95.84
15674;BME280;7937;48.090;16.212;2022-08-25T03:47:58;97795.91;;;18.71;96.19
15674;BME280;7937;48.090;16.212;2022-08-25T03:51:00;97789.72;;;18.70;96.43
15674;BME280;7937;48.090;16.212;2022-08-25T03:54:03;97800.41;;;18.70;96.67
15674;BME280;7937;48.090;16.212;2022-08-25T03:57:05;97793.06;;;18.72;96.73
15674;BME280;7937;48.090;16.212;2022-08-25T04:00:08;97801.59;;;18.76;96.64
15674;BME280;7937;48.090;16.212;2022-08-25T04:03:12;97797.88;;;18.77;96.88
15674;BME280;7937;48.090;16.212;2022-08-25T04:06:16;97801.59;;;18.76;96.84
15674;BME280;7937;48.090;16.212;2022-08-25T04:09:18;97801.59;;;18.76;97.21
15674;BME280;7937;48.090;16.212;2022-08-25T04:12:20;97803.06;;;18.78;96.97
15674;BME280;7937;48.090;16.212;2022-08-25T04:15:23;97804.41;;;18.83;97.01
15674;BME280;7937;48.090;16.212;2022-08-25T04:18:30;97796.69;;;18.88;96.93
15674;BME280;7937;48.090;16.212;2022-08-25T04:21:32;97800.69;;;18.92;96.88
15674;BME280;7937;48.090;16.212;2022-08-25T04:24:35;97792.78;;;18.98;96.73
15674;BME280;7937;48.090;16.212;2022-08-25T04:27:37;97792.13;;;19.04;96.46
15674;BME280;7937;48.090;16.212;2022-08-25T04:30:41;97786.22;;;19.09;96.23
15674;BME280;7937;48.090;16.212;2022-08-25T04:33:44;97789.06;;;19.15;96.23
15674;BME280;7937;48.090;16.212;2022-08-25T04:36:48;97791.22;;;19.20;96.01
15674;BME280;7937;48.090;16.212;2022-08-25T04:39:53;97796.03;;;19.25;95.77
15674;BME280;7937;48.090;16.212;2022-08-25T04:42:55;97786.19;;;19.25;95.58
15674;BME280;7937;48.090;16.212;2022-08-25T04:45:58;97789.31;;;19.29;95.54
15674;BME280;7937;48.090;16.212;2022-08-25T04:49:01;97789.31;;;19.29;95.73
15674;BME280;7937;48.090;16.212;2022-08-25T04:52:04;97797.72;;;19.26;95.26
15674;BME280;7937;48.090;16.212;2022-08-25T04:55:13;97793.72;;;19.22;95.34
15674;BME280;7937;48.090;16.212;2022-08-25T04:58:15;97794.72;;;19.21;95.30
15674;BME280;7937;48.090;16.212;2022-08-25T05:01:21;97795.88;;;19.18;95.30
15674;BME280;7937;48.090;16.212;2022-08-25T05:04:24;97792.91;;;19.13;95.78
15674;BME280;7937;48.090;16.212;2022-08-25T05:07:29;97785.06;;;19.11;95.95
15674;BME280;7937;48.090;16.212;2022-08-25T05:10:32;97788.69;;;19.18;95.63
15674;BME280;7937;48.090;16.212;2022-08-25T05:13:34;97791.53;;;19.17;95.81
15674;BME280;7937;48.090;16.212;2022-08-25T05:16:38;97787.03;;;19.17;95.92
15674;BME280;7937;48.090;16.212;2022-08-25T05:19:41;97787.34;;;19.23;95.76
15674;BME280;7937;48.090;16.212;2022-08-25T05:22:44;97783.13;;;19.28;95.73
15674;BME280;7937;48.090;16.212;2022-08-25T05:25:47;97784.97;;;19.36;95.59
15674;BME280;7937;48.090;16.212;2022-08-25T05:28:51;97782.22;;;19.44;95.27
15674;BME280;7937;48.090;16.212;2022-08-25T05:31:53;97784.88;;;19.52;95.16
15674;BME280;7937;48.090;16.212;2022-08-25T05:34:55;97782.63;;;19.64;94.92
15674;BME280;7937;48.090;16.212;2022-08-25T05:37:57;97789.03;;;19.77;94.44
15674;BME280;7937;48.090;16.212;2022-08-25T05:41:05;97786.13;;;19.87;94.00
15674;BME280;7937;48.090;16.212;2022-08-25T05:44:07;97788.38;;;19.98;93.84
15674;BME280;7937;48.090;16.212;2022-08-25T05:47:10;97784.63;;;20.07;93.71
15674;BME280;7937;48.090;16.212;2022-08-25T05:50:12;97792.63;;;20.15;93.35
15674;BME280;7937;48.090;16.212;2022-08-25T05:53:14;97794.94;;;20.18;93.15
15674;BME280;7937;48.090;16.212;2022-08-25T05:56:17;97787.38;;;20.22;93.33
15674;BME280;7937;48.090;16.212;2022-08-25T05:59:19;97796.72;;;20.26;93.14
15674;BME280;7937;48.090;16.212;2022-08-25T06:02:21;97797.34;;;20.28;92.89
15674;BME280;7937;48.090;16.212;2022-08-25T06:05:42;97793.84;;;20.27;92.96
15674;BME280;7937;48.090;16.212;2022-08-25T06:08:44;97797.53;;;20.26;92.92
15674;BME280;7937;48.090;16.212;2022-08-25T06:11:47;97799.59;;;20.24;92.94
15674;BME280;7937;48.090;16.212;2022-08-25T06:14:55;97802.63;;;20.21;93.02
15674;BME280;7937;48.090;16.212;2022-08-25T06:17:57;97792.91;;;20.20;92.76
15674;BME280;7937;48.090;16.212;2022-08-25T06:21:12;97804.19;;;20.16;92.58
15674;BME280;7937;48.090;16.212;2022-08-25T06:24:14;97799.34;;;20.11;92.48
15674;BME280;7937;48.090;16.212;2022-08-25T06:27:16;97801.84;;;20.13;92.52
15674;BME280;7937;48.090;16.212;2022-08-25T06:30:21;97801.53;;;20.08;92.68
15674;BME280;7937;48.090;16.212;2022-08-25T06:33:29;97797.69;;;20.10;92.57
15674;BME280;7937;48.090;16.212;2022-08-25T06:36:32;97797.69;;;20.10;91.94
15674;BME280;7937;48.090;16.212;2022-08-25T06:39:34;97809.22;;;20.11;91.87
15674;BME280;7937;48.090;16.212;2022-08-25T06:42:36;97806.78;;;20.24;91.89
15674;BME280;7937;48.090;16.212;2022-08-25T06:45:40;97805.16;;;20.38;91.04
15674;BME280;7937;48.090;16.212;2022-08-25T06:48:44;97807.88;;;20.52;90.59
15674;BME280;7937;48.090;16.212;2022-08-25T06:51:46;97809.84;;;20.58;90.47
15674;BME280;7937;48.090;16.212;2022-08-25T06:54:48;97803.28;;;20.61;90.29
15674;BME280;7937;48.090;16.212;2022-08-25T06:57:52;97813.81;;;20.62;90.10
15674;BME280;7937;48.090;16.212;2022-08-25T07:01:11;97812.16;;;20.61;90.04
15674;BME280;7937;48.090;16.212;2022-08-25T07:04:21;97805.97;;;20.61;90.15
15674;BME280;7937;48.090;16.212;2022-08-25T07:07:23;97809.28;;;20.63;90.17
15674;BME280;7937;48.090;16.212;2022-08-25T07:10:25;97811.41;;;20.68;89.78
15674;BME280;7937;48.090;16.212;2022-08-25T07:13:27;97812.06;;;20.70;89.14
15674;BME280;7937;48.090;16.212;2022-08-25T07:16:30;97814.38;;;20.73;89.18
15674;BME280;7937;48.090;16.212;2022-08-25T07:19:35;97823.00;;;20.83;89.08
15674;BME280;7937;48.090;16.212;2022-08-25T07:22:37;97821.31;;;20.96;88.32
15674;BME280;7937;48.090;16.212;2022-08-25T07:25:40;97824.00;;;20.96;87.79
15674;BME280;7937;48.090;16.212;2022-08-25T07:28:43;97829.00;;;20.99;87.44
15674;BME280;7937;48.090;16.212;2022-08-25T07:31:48;97827.16;;;21.00;87.58
15674;BME280;7937;48.090;16.212;2022-08-25T07:34:51;97832.44;;;21.08;86.99
15674;BME280;7937;48.090;16.212;2022-08-25T07:38:12;97830.69;;;21.15;86.64
15674;BME280;7937;48.090;16.212;2022-08-25T07:41:21;97833.56;;;21.14;86.84
15674;BME280;7937;48.090;16.212;2022-08-25T07:44:24;97832.59;;;21.07;87.15
15674;BME280;7937;48.090;16.212;2022-08-25T07:47:28;97832.44;;;20.93;87.55
15674;BME280;7937;48.090;16.212;2022-08-25T07:50:31;97834.75;;;20.82;87.68
15674;BME280;7937;48.090;16.212;2022-08-25T07:53:33;97838.78;;;20.78;87.67
15674;BME280;7937;48.090;16.212;2022-08-25T07:56:38;97840.28;;;20.80;87.60
15674;BME280;7937;48.090;16.212;2022-08-25T07:59:42;97836.59;;;20.81;87.62
15674;BME280;7937;48.090;16.212;2022-08-25T08:02:45;97833.16;;;20.87;87.36
15674;BME280;7937;48.090;16.212;2022-08-25T08:05:50;97838.25;;;20.97;87.26
15674;BME280;7937;48.090;16.212;2022-08-25T08:08:53;97834.75;;;21.11;86.27
15674;BME280;7937;48.090;16.212;2022-08-25T08:11:59;97835.50;;;21.34;86.08
15674;BME280;7937;48.090;16.212;2022-08-25T08:15:03;97834.63;;;21.49;84.85
15674;BME280;7937;48.090;16.212;2022-08-25T08:18:11;97847.97;;;21.57;84.23
15674;BME280;7937;48.090;16.212;2022-08-25T08:21:34;97845.09;;;21.58;83.46
15674;BME280;7937;48.090;16.212;2022-08-25T08:24:36;97852.72;;;21.55;83.99
15674;BME280;7937;48.090;16.212;2022-08-25T08:27:55;97852.91;;;21.53;83.64
15674;BME280;7937;48.090;16.212;2022-08-25T08:30:58;97843.88;;;21.61;83.98
15674;BME280;7937;48.090;16.212;2022-08-25T08:34:01;97846.88;;;21.87;82.20
15674;BME280;7937;48.090;16.212;2022-08-25T08:37:04;97844.69;;;21.97;81.45
15674;BME280;7937;48.090;16.212;2022-08-25T08:40:14;97848.34;;;21.90;81.06
15674;BME280;7937;48.090;16.212;2022-08-25T08:43:18;97836.75;;;22.04;81.45
15674;BME280;7937;48.090;16.212;2022-08-25T08:46:21;97845.56;;;22.40;79.53
15674;BME280;7937;48.090;16.212;2022-08-25T08:49:36;97842.22;;;22.88;78.71
15674;BME280;7937;48.090;16.212;2022-08-25T08:56:19;97844.44;;;23.05;76.85
15674;BME280;7937;48.090;16.212;2022-08-25T08:59:33;97835.91;;;23.02;77.20
15674;BME280;7937;48.090;16.212;2022-08-25T09:02:48;97845.84;;;22.73;77.71
15674;BME280;7937;48.090;16.212;2022-08-25T09:05:55;97847.78;;;22.37;79.03
15674;BME280;7937;48.090;16.212;2022-08-25T09:09:02;97842.81;;;22.34;78.88
15674;BME280;7937;48.090;16.212;2022-08-25T09:19:05;97829.69;;;23.90;72.63
15674;BME280;7937;48.090;16.212;2022-08-25T09:26:07;97827.38;;;23.87;72.43
15674;BME280;7937;48.090;16.212;2022-08-25T09:29:20;97814.72;;;23.81;71.81
15674;BME280;7937;48.090;16.212;2022-08-25T09:32:30;97809.25;;;24.42;70.33
15674;BME280;7937;48.090;16.212;2022-08-25T09:35:35;97811.63;;;25.22;67.83
15674;BME280;7937;48.090;16.212;2022-08-25T09:38:40;97807.38;;;25.53;65.79
15674;BME280;7937;48.090;16.212;2022-08-25T09:41:54;97806.16;;;25.42;65.02
15674;BME280;7937;48.090;16.212;2022-08-25T09:44:57;97799.72;;;25.36;64.98
15674;BME280;7937;48.090;16.212;2022-08-25T09:48:02;97794.88;;;25.65;65.27
15674;BME280;7937;48.090;16.212;2022-08-25T09:51:31;97785.94;;;26.27;63.70
15674;BME280;7937;48.090;16.212;2022-08-25T09:54:42;97774.81;;;26.85;61.29
15674;BME280;7937;48.090;16.212;2022-08-25T09:57:53;97774.22;;;27.38;60.57
15674;BME280;7937;48.090;16.212;2022-08-25T10:01:14;97778.50;;;27.45;58.02
15674;BME280;7937;48.090;16.212;2022-08-25T10:04:35;97769.63;;;27.57;57.33
15674;BME280;7937;48.090;16.212;2022-08-25T10:07:48;97773.66;;;28.37;56.14
15674;BME280;7937;48.090;16.212;2022-08-25T10:10:54;97769.44;;;28.41;54.57
15674;BME280;7937;48.090;16.212;2022-08-25T10:14:13;97770.38;;;27.94;55.66
15674;BME280;7937;48.090;16.212;2022-08-25T10:17:21;97764.28;;;28.10;54.17
15674;BME280;7937;48.090;16.212;2022-08-25T10:20:29;97768.81;;;27.38;55.64
15674;BME280;7937;48.090;16.212;2022-08-25T10:23:41;97759.06;;;27.48;55.79
15674;BME280;7937;48.090;16.212;2022-08-25T10:26:56;97753.63;;;27.55;56.55
15674;BME280;7937;48.090;16.212;2022-08-25T10:39:37;97745.97;;;28.82;53.10
15674;BME280;7937;48.090;16.212;2022-08-25T10:46:24;97742.28;;;28.30;55.86
15674;BME280;7937;48.090;16.212;2022-08-25T10:49:53;97734.00;;;28.36;53.71
15674;BME280;7937;48.090;16.212;2022-08-25T10:53:16;97740.16;;;28.43;53.28
15674;BME280;7937;48.090;16.212;2022-08-25T10:56:26;97739.34;;;28.54;53.21
15674;BME280;7937;48.090;16.212;2022-08-25T10:59:59;97740.16;;;28.90;49.61
15674;BME280;7937;48.090;16.212;2022-08-25T11:03:45;97741.22;;;28.42;52.49
15674;BME280;7937;48.090;16.212;2022-08-25T11:06:54;97735.44;;;27.97;53.62
15674;BME280;7937;48.090;16.212;2022-08-25T11:10:04;97725.88;;;27.83;54.06
15674;BME280;7937;48.090;16.212;2022-08-25T11:13:32;97721.44;;;28.12;54.25
15674;BME280;7937;48.090;16.212;2022-08-25T11:19:46;97723.28;;;28.88;51.72
15674;BME280;7937;48.090;16.212;2022-08-25T11:23:20;97720.69;;;28.35;51.16
15674;BME280;7937;48.090;16.212;2022-08-25T11:26:29;97709.78;;;28.11;52.59
15674;BME280;7937;48.090;16.212;2022-08-25T11:29:38;97707.16;;;28.16;54.40
15674;BME280;7937;48.090;16.212;2022-08-25T11:32:50;97705.25;;;28.05;55.61
15674;BME280;7937;48.090;16.212;2022-08-25T11:35:56;97697.53;;;28.20;55.72
15674;BME280;7937;48.090;16.212;2022-08-25T11:52:43;97689.09;;;29.72;47.35
15674;BME280;7937;48.090;16.212;2022-08-25T11:55:53;97688.91;;;30.07;47.38
15674;BME280;7937;48.090;16.212;2022-08-25T11:58:56;97688.94;;;29.79;48.80
15674;BME280;7937;48.090;16.212;2022-08-25T12:01:59;97693.84;;;29.36;51.03
15674;BME280;7937;48.090;16.212;2022-08-25T12:05:11;97691.84;;;28.69;51.13
15674;BME280;7937;48.090;16.212;2022-08-25T12:12:28;97678.25;;;28.10;55.06
15674;BME280;7937;48.090;16.212;2022-08-25T12:18:44;97681.09;;;29.25;51.24
15674;BME280;7937;48.090;16.212;2022-08-25T12:21:52;97672.53;;;29.73;46.31
15674;BME280;7937;48.090;16.212;2022-08-25T12:25:16;97673.31;;;30.02;45.89
15674;BME280;7937;48.090;16.212;2022-08-25T12:32:01;97676.31;;;29.72;48.15
15674;BME280;7937;48.090;16.212;2022-08-25T12:38:17;97662.97;;;29.88;47.87
15674;BME280;7937;48.090;16.212;2022-08-25T12:41:27;97663.78;;;29.88;45.66
15674;BME280;7937;48.090;16.212;2022-08-25T12:44:44;97660.50;;;29.41;46.27
15674;BME280;7937;48.090;16.212;2022-08-25T12:47:52;97658.41;;;29.77;44.95
15674;BME280;7937;48.090;16.212;2022-08-25T12:50:56;97663.50;;;30.01;46.30
15674;BME280;7937;48.090;16.212;2022-08-25T13:07:57;97649.91;;;28.88;47.65
15674;BME280;7937;48.090;16.212;2022-08-25T13:11:10;97652.38;;;29.29;48.02
15674;BME280;7937;48.090;16.212;2022-08-25T13:14:21;97642.41;;;29.35;49.30
15674;BME280;7937;48.090;16.212;2022-08-25T13:17:33;97648.47;;;29.25;50.35
15674;BME280;7937;48.090;16.212;2022-08-25T13:20:39;97646.91;;;29.41;49.38
15674;BME280;7937;48.090;16.212;2022-08-25T13:23:47;97646.16;;;30.24;47.25
15674;BME280;7937;48.090;16.212;2022-08-25T13:26:53;97639.72;;;31.34;45.01
15674;BME280;7937;48.090;16.212;2022-08-25T13:29:58;97633.41;;;32.61;41.67
15674;BME280;7937;48.090;16.212;2022-08-25T13:33:15;97635.72;;;33.72;36.28
15674;BME280;7937;48.090;16.212;2022-08-25T13:36:23;97629.09;;;34.60;34.75
15674;BME280;7937;48.090;16.212;2022-08-25T13:40:15;97620.06;;;35.34;33.45
15674;BME280;7937;48.090;16.212;2022-08-25T13:43:27;97622.28;;;36.05;31.55
15674;BME280;7937;48.090;16.212;2022-08-25T13:46:30;97620.91;;;37.31;29.46
15674;BME280;7937;48.090;16.212;2022-08-25T13:49:37;97611.50;;;38.67;28.31
15674;BME280;7937;48.090;16.212;2022-08-25T13:52:42;97611.84;;;39.79;26.56
15674;BME280;7937;48.090;16.212;2022-08-25T13:55:51;97606.56;;;39.33;26.22
15674;BME280;7937;48.090;16.212;2022-08-25T13:59:00;97603.00;;;39.05;27.04
15674;BME280;7937;48.090;16.212;2022-08-25T14:02:07;97603.22;;;38.95;27.21
15674;BME280;7937;48.090;16.212;2022-08-25T14:05:33;97600.13;;;36.25;29.41
15674;BME280;7937;48.090;16.212;2022-08-25T14:08:39;97597.59;;;36.57;30.04
15674;BME280;7937;48.090;16.212;2022-08-25T14:11:46;97598.03;;;37.87;28.09
15674;BME280;7937;48.090;16.212;2022-08-25T14:15:01;97594.56;;;35.67;31.58
15674;BME280;7937;48.090;16.212;2022-08-25T14:18:12;97602.06;;;33.92;35.46
15674;BME280;7937;48.090;16.212;2022-08-25T14:21:18;97590.88;;;32.81;37.33
15674;BME280;7937;48.090;16.212;2022-08-25T14:24:22;97587.94;;;32.45;38.50
15674;BME280;7937;48.090;16.212;2022-08-25T14:27:24;97590.41;;;32.42;40.80
15674;BME280;7937;48.090;16.212;2022-08-25T14:30:27;97585.97;;;34.91;34.85
15674;BME280;7937;48.090;16.212;2022-08-25T14:33:39;97594.56;;;34.59;35.31
15674;BME280;7937;48.090;16.212;2022-08-25T14:36:43;97591.66;;;32.71;39.28
15674;BME280;7937;48.090;16.212;2022-08-25T14:39:45;97589.47;;;31.84;42.36
15674;BME280;7937;48.090;16.212;2022-08-25T14:42:48;97589.94;;;32.65;39.69
15674;BME280;7937;48.090;16.212;2022-08-25T14:45:51;97590.00;;;33.68;38.58
15674;BME280;7937;48.090;16.212;2022-08-25T14:48:56;97583.38;;;36.50;33.39
15674;BME280;7937;48.090;16.212;2022-08-25T14:52:09;97575.81;;;37.97;30.17
15674;BME280;7937;48.090;16.212;2022-08-25T14:55:14;97568.06;;;38.87;29.49
15674;BME280;7937;48.090;16.212;2022-08-25T14:58:32;97568.63;;;39.83;26.76
15674;BME280;7937;48.090;16.212;2022-08-25T15:01:40;97571.59;;;39.87;25.72
15674;BME280;7937;48.090;16.212;2022-08-25T15:04:53;97566.91;;;40.18;24.57
15674;BME280;7937;48.090;16.212;2022-08-25T15:07:56;97560.03;;;39.62;24.69
15674;BME280;7937;48.090;16.212;2022-08-25T15:11:17;97572.56;;;39.46;24.55
15674;BME280;7937;48.090;16.212;2022-08-25T15:14:20;97559.00;;;39.80;24.86
15674;BME280;7937;48.090;16.212;2022-08-25T15:17:29;97564.16;;;40.49;24.00
15674;BME280;7937;48.090;16.212;2022-08-25T15:20:31;97565.13;;;40.92;24.01
15674;BME280;7937;48.090;16.212;2022-08-25T15:23:34;97569.94;;;40.70;24.23
15674;BME280;7937;48.090;16.212;2022-08-25T15:26:42;97562.50;;;40.87;23.74
15674;BME280;7937;48.090;16.212;2022-08-25T15:29:46;97561.78;;;40.73;23.47
15674;BME280;7937;48.090;16.212;2022-08-25T15:32:50;97551.31;;;40.53;24.46
15674;BME280;7937;48.090;16.212;2022-08-25T15:35:57;97550.22;;;39.20;25.65
15674;BME280;7937;48.090;16.212;2022-08-25T15:39:02;97547.09;;;35.62;32.65
15674;BME280;7937;48.090;16.212;2022-08-25T15:42:05;97547.75;;;33.03;38.43
15674;BME280;7937;48.090;16.212;2022-08-25T15:45:09;97538.50;;;31.31;41.71
15674;BME280;7937;48.090;16.212;2022-08-25T15:48:11;97538.19;;;29.96;44.97
15674;BME280;7937;48.090;16.212;2022-08-25T15:51:15;97537.94;;;29.31;47.47
15674;BME280;7937;48.090;16.212;2022-08-25T15:54:18;97536.59;;;29.17;48.71
15674;BME280;7937;48.090;16.212;2022-08-25T15:57:21;97534.22;;;28.63;49.98
15674;BME280;7937;48.090;16.212;2022-08-25T16:00:25;97538.78;;;28.11;52.08
15674;BME280;7937;48.090;16.212;2022-08-25T16:03:29;97536.91;;;27.65;54.02
15674;BME280;7937;48.090;16.212;2022-08-25T16:06:32;97534.03;;;27.37;54.83
15674;BME280;7937;48.090;16.212;2022-08-25T16:09:35;97539.31;;;27.20;55.62
15674;BME280;7937;48.090;16.212;2022-08-25T16:12:37;97531.94;;;26.97;56.29
15674;BME280;7937;48.090;16.212;2022-08-25T16:15:46;97536.59;;;26.60;57.31
15674;BME280;7937;48.090;16.212;2022-08-25T16:18:55;97539.16;;;26.37;58.35
15674;BME280;7937;48.090;16.212;2022-08-25T16:21:58;97533.22;;;26.10;59.43
15674;BME280;7937;48.090;16.212;2022-08-25T16:25:00;97527.94;;;25.97;59.97
15674;BME280;7937;48.090;16.212;2022-08-25T16:28:03;97533.38;;;25.47;61.12
15674;BME280;7937;48.090;16.212;2022-08-25T16:31:08;97533.19;;;25.17;62.70
15674;BME280;7937;48.090;16.212;2022-08-25T16:34:11;97527.44;;;25.14;62.97
15674;BME280;7937;48.090;16.212;2022-08-25T16:37:13;97525.47;;;24.89;63.49
15674;BME280;7937;48.090;16.212;2022-08-25T16:40:16;97530.56;;;24.73;64.18
15674;BME280;7937;48.090;16.212;2022-08-25T16:43:21;97531.66;;;24.58;64.67
15674;BME280;7937;48.090;16.212;2022-08-25T16:46:24;97530.16;;;24.69;64.61
15674;BME280;7937;48.090;16.212;2022-08-25T16:49:27;97527.78;;;24.48;65.03
15674;BME280;7937;48.090;16.212;2022-08-25T16:52:31;97528.31;;;24.25;66.19
15674;BME280;7937;48.090;16.212;2022-08-25T16:56:00;97534.31;;;24.07;66.75
15674;BME280;7937;48.090;16.212;2022-08-25T16:59:04;97533.56;;;23.87;67.36
15674;BME280;7937;48.090;16.212;2022-08-25T17:02:07;97530.69;;;23.69;68.09
15674;BME280;7937;48.090;16.212;2022-08-25T17:05:10;97537.56;;;23.51;68.50
15674;BME280;7937;48.090;16.212;2022-08-25T17:08:12;97541.25;;;23.37;68.80
15674;BME280;7937;48.090;16.212;2022-08-25T17:11:33;97536.28;;;23.14;69.71
15674;BME280;7937;48.090;16.212;2022-08-25T17:14:36;97533.78;;;23.00;70.26
15674;BME280;7937;48.090;16.212;2022-08-25T17:17:38;97540.56;;;22.83;71.26
15674;BME280;7937;48.090;16.212;2022-08-25T17:20:42;97546.06;;;22.61;72.09
15674;BME280;7937;48.090;16.212;2022-08-25T17:23:46;97538.56;;;22.43;72.82
15674;BME280;7937;48.090;16.212;2022-08-25T17:26:51;97540.38;;;22.36;73.19
15674;BME280;7937;48.090;16.212;2022-08-25T17:29:54;97553.63;;;22.31;73.23
15674;BME280;7937;48.090;16.212;2022-08-25T17:32:57;97547.38;;;22.24;73.43
15674;BME280;7937;48.090;16.212;2022-08-25T17:35:59;97552.50;;;22.13;73.64
15674;BME280;7937;48.090;16.212;2022-08-25T17:39:02;97550.50;;;21.93;74.03
15674;BME280;7937;48.090;16.212;2022-08-25T17:42:04;97551.44;;;21.79;74.22